sensor_id;sensor_type;location;lat;lon;timestamp;temperature;humidity
7936;DHT22;4013;49.744;8.118;2023-05-15T00:01:22;13.00;99.90
7936;DHT22;4013;49.744;8.118;2023-05-15T00:03:50;13.00;99.90
7936;DHT22;4013;49.744;8.118;2023-05-15T00:06:17;13.00;99.90
7936;DHT22;4013;49.744;8.118;2023-05-15T00:08:45;13.00;99.90
7936;DHT22;4013;49.744;8.118;2023-05-15T00:11:12;12.90;99.90
7936;DHT22;4013;49.744;8.118;2023-05-15T00:13:39;12.80;99.90
7936;DHT22;4013;49.744;8.118;2023-05-15T00:16:07;12.90;99.90
7936;DHT22;4013;49.744;8.118;2023-05-15T00:18:34;12.90;99.90
7936;DHT22;4013;49.744;8.118;2023-05-15T00:21:01;12.80;99.90
7936;DHT22;4013;49.744;8.118;2023-05-15T00:23:28;12.80;99.90
7936;DHT22;4013;49.744;8.118;2023-05-15T00:25:57;12.80;99.90
7936;DHT22;4013;49.744;8.118;2023-05-15T00:28:23;12.80;99.90
7936;DHT22;4013;49.744;8.118;2023-05-15T00:30:50;12.80;99.90
7936;DHT22;4013;49.744;8.118;2023-05-15T00:33:18;12.80;99.90
7936;DHT22;4013;49.744;8.118;2023-05-15T00:35:45;12.80;99.90
7936;DHT22;4013;49.744;8.118;2023-05-15T00:38:12;12.90;99.90
7936;DHT22;4013;49.744;8.118;2023-05-15T00:40:40;12.90;99.90
7936;DHT22;4013;49.744;8.118;2023-05-15T00:43:10;12.90;99.90
7936;DHT22;4013;49.744;8.118;2023-05-15T00:45:38;12.90;99.90
7936;DHT22;4013;49.744;8.118;2023-05-15T00:48:08;13.00;99.90
7936;DHT22;4013;49.744;8.118;2023-05-15T00:50:35;13.00;99.90
7936;DHT22;4013;49.744;8.118;2023-05-15T00:53:04;12.90;99.90
7936;DHT22;4013;49.744;8.118;2023-05-15T00:55:32;12.90;99.90
7936;DHT22;4013;49.744;8.118;2023-05-15T00:58:00;12.90;99.90
7936;DHT22;4013;49.744;8.118;2023-05-15T01:00:30;13.00;99.90
7936;DHT22;4013;49.744;8.118;2023-05-15T01:02:58;13.00;99.90
7936;DHT22;4013;49.744;8.118;2023-05-15T01:05:26;13.10;99.90
7936;DHT22;4013;49.744;8.118;2023-05-15T01:07:58;13.10;99.90
7936;DHT22;4013;49.744;8.118;2023-05-15T01:10:27;13.10;99.90
7936;DHT22;4013;49.744;8.118;2023-05-15T01:12:54;13.00;99.90
7936;DHT22;4013;49.744;8.118;2023-05-15T01:15:22;13.10;99.90
7936;DHT22;4013;49.744;8.118;2023-05-15T01:17:51;13.00;99.90
7936;DHT22;4013;49.744;8.118;2023-05-15T01:20:19;13.00;99.90
7936;DHT22;4013;49.744;8.118;2023-05-15T01:22:55;13.00;99.90
7936;DHT22;4013;49.744;8.118;2023-05-15T01:25:45;13.00;99.90
7936;DHT22;4013;49.744;8.118;2023-05-15T01:28:21;12.90;99.90
7936;DHT22;4013;49.744;8.118;2023-05-15T01:30:51;13.00;99.90
7936;DHT22;4013;49.744;8.118;2023-05-15T01:33:24;13.00;99.90
7936;DHT22;4013;49.744;8.118;2023-05-15T01:35:58;13.10;99.90
7936;DHT22;4013;49.744;8.118;2023-05-15T01:38:32;13.10;99.90
7936;DHT22;4013;49.744;8.118;2023-05-15T01:41:05;13.10;99.90
7936;DHT22;4013;49.744;8.118;2023-05-15T01:43:38;13.00;99.90
7936;DHT22;4013;49.744;8.118;2023-05-15T01:46:07;13.00;99.90
7936;DHT22;4013;49.744;8.118;2023-05-15T01:48:35;13.00;99.90
7936;DHT22;4013;49.744;8.118;2023-05-15T01:51:05;13.10;99.90
7936;DHT22;4013;49.744;8.118;2023-05-15T01:53:34;13.10;99.90
7936;DHT22;4013;49.744;8.118;2023-05-15T01:56:04;13.10;99.90
7936;DHT22;4013;49.744;8.118;2023-05-15T01:58:33;13.10;99.90
7936;DHT22;4013;49.744;8.118;2023-05-15T02:01:01;13.00;99.90
7936;DHT22;4013;49.744;8.118;2023-05-15T02:03:30;12.90;99.90
7936;DHT22;4013;49.744;8.118;2023-05-15T02:05:59;12.80;99.90
7936;DHT22;4013;49.744;8.118;2023-05-15T02:08:26;12.70;99.90
7936;DHT22;4013;49.744;8.118;2023-05-15T02:10:54;12.70;99.90
7936;DHT22;4013;49.744;8.118;2023-05-15T02:13:23;12.80;99.90
7936;DHT22;4013;49.744;8.118;2023-05-15T02:15:50;12.80;99.90
7936;DHT22;4013;49.744;8.118;2023-05-15T02:18:18;12.80;99.90
7936;DHT22;4013;49.744;8.118;2023-05-15T02:20:45;12.80;99.90
7936;DHT22;4013;49.744;8.118;2023-05-15T02:23:12;12.70;99.90
7936;DHT22;4013;49.744;8.118;2023-05-15T02:25:45;12.70;99.90
7936;DHT22;4013;49.744;8.118;2023-05-15T02:28:19;12.70;99.90
7936;DHT22;4013;49.744;8.118;2023-05-15T02:30:53;12.70;99.90
7936;DHT22;4013;49.744;8.118;2023-05-15T02:33:30;12.60;99.90
7936;DHT22;4013;49.744;8.118;2023-05-15T02:36:04;12.60;99.90
7936;DHT22;4013;49.744;8.118;2023-05-15T02:38:35;12.50;99.90
7936;DHT22;4013;49.744;8.118;2023-05-15T02:41:04;12.50;99.90
7936;DHT22;4013;49.744;8.118;2023-05-15T02:43:32;12.40;99.90
7936;DHT22;4013;49.744;8.118;2023-05-15T02:46:01;12.30;99.90
7936;DHT22;4013;49.744;8.118;2023-05-15T02:48:30;12.40;99.90
7936;DHT22;4013;49.744;8.118;2023-05-15T02:50:57;12.30;99.90
7936;DHT22;4013;49.744;8.118;2023-05-15T02:53:24;12.30;99.90
7936;DHT22;4013;49.744;8.118;2023-05-15T02:55:51;12.20;99.90
7936;DHT22;4013;49.744;8.118;2023-05-15T02:58:18;12.20;99.90
7936;DHT22;4013;49.744;8.118;2023-05-15T03:00:45;12.20;99.90
7936;DHT22;4013;49.744;8.118;2023-05-15T03:03:13;12.20;99.90
7936;DHT22;4013;49.744;8.118;2023-05-15T03:05:41;12.10;99.90
7936;DHT22;4013;49.744;8.118;2023-05-15T03:08:08;12.10;99.90
7936;DHT22;4013;49.744;8.118;2023-05-15T03:10:35;12.00;99.90
7936;DHT22;4013;49.744;8.118;2023-05-15T03:13:02;11.80;99.90
7936;DHT22;4013;49.744;8.118;2023-05-15T03:15:29;11.90;99.90
7936;DHT22;4013;49.744;8.118;2023-05-15T03:17:56;11.90;99.90
7936;DHT22;4013;49.744;8.118;2023-05-15T03:20:23;11.90;99.90
7936;DHT22;4013;49.744;8.118;2023-05-15T03:22:51;11.80;99.90
7936;DHT22;4013;49.744;8.118;2023-05-15T03:25:18;11.70;99.90
7936;DHT22;4013;49.744;8.118;2023-05-15T03:27:45;11.70;99.90
7936;DHT22;4013;49.744;8.118;2023-05-15T03:30:12;11.70;99.90
7936;DHT22;4013;49.744;8.118;2023-05-15T03:32:39;11.70;99.90
7936;DHT22;4013;49.744;8.118;2023-05-15T03:35:07;11.70;99.90
7936;DHT22;4013;49.744;8.118;2023-05-15T03:37:34;11.70;99.90
7936;DHT22;4013;49.744;8.118;2023-05-15T03:40:03;11.80;99.90
7936;DHT22;4013;49.744;8.118;2023-05-15T03:42:32;11.90;99.90
7936;DHT22;4013;49.744;8.118;2023-05-15T03:44:59;11.90;99.90
7936;DHT22;4013;49.744;8.118;2023-05-15T03:47:25;11.90;99.90
7936;DHT22;4013;49.744;8.118;2023-05-15T03:49:52;11.90;99.90
7936;DHT22;4013;49.744;8.118;2023-05-15T03:52:19;11.90;99.90
7936;DHT22;4013;49.744;8.118;2023-05-15T03:54:46;12.00;99.90
7936;DHT22;4013;49.744;8.118;2023-05-15T03:57:15;12.00;99.90
7936;DHT22;4013;49.744;8.118;2023-05-15T03:59:42;12.00;99.90
7936;DHT22;4013;49.744;8.118;2023-05-15T04:02:09;12.10;99.90
7936;DHT22;4013;49.744;8.118;2023-05-15T04:04:36;12.20;99.90
7936;DHT22;4013;49.744;8.118;2023-05-15T04:07:03;12.10;99.90
7936;DHT22;4013;49.744;8.118;2023-05-15T04:09:30;12.20;99.90
7936;DHT22;4013;49.744;8.118;2023-05-15T04:11:57;12.20;99.90
7936;DHT22;4013;49.744;8.118;2023-05-15T04:14:25;12.20;99.90
7936;DHT22;4013;49.744;8.118;2023-05-15T04:16:52;12.10;99.90
7936;DHT22;4013;49.744;8.118;2023-05-15T04:19:19;12.10;99.90
7936;DHT22;4013;49.744;8.118;2023-05-15T04:21:46;12.20;99.90
7936;DHT22;4013;49.744;8.118;2023-05-15T04:24:13;12.30;99.90
7936;DHT22;4013;49.744;8.118;2023-05-15T04:26:40;12.50;99.90
7936;DHT22;4013;49.744;8.118;2023-05-15T04:29:07;12.60;99.90
7936;DHT22;4013;49.744;8.118;2023-05-15T04:31:36;12.70;99.90
7936;DHT22;4013;49.744;8.118;2023-05-15T04:34:03;12.80;99.90
7936;DHT22;4013;49.744;8.118;2023-05-15T04:36:30;12.90;99.90
7936;DHT22;4013;49.744;8.118;2023-05-15T04:38:57;13.00;99.90
7936;DHT22;4013;49.744;8.118;2023-05-15T04:41:24;12.90;99.90
7936;DHT22;4013;49.744;8.118;2023-05-15T04:43:51;13.00;99.90
7936;DHT22;4013;49.744;8.118;2023-05-15T04:46:18;13.10;99.90
7936;DHT22;4013;49.744;8.118;2023-05-15T04:48:46;13.20;99.90
7936;DHT22;4013;49.744;8.118;2023-05-15T04:51:13;13.30;99.90
7936;DHT22;4013;49.744;8.118;2023-05-15T04:53:40;13.30;99.90
7936;DHT22;4013;49.744;8.118;2023-05-15T04:56:07;13.30;99.90
7936;DHT22;4013;49.744;8.118;2023-05-15T04:58:34;13.20;99.90
7936;DHT22;4013;49.744;8.118;2023-05-15T05:01:01;13.30;99.90
7936;DHT22;4013;49.744;8.118;2023-05-15T05:03:28;13.50;99.90
7936;DHT22;4013;49.744;8.118;2023-05-15T05:05:56;13.60;99.90
7936;DHT22;4013;49.744;8.118;2023-05-15T05:08:23;13.60;99.90
7936;DHT22;4013;49.744;8.118;2023-05-15T05:10:54;13.60;99.90
7936;DHT22;4013;49.744;8.118;2023-05-15T05:13:21;13.50;99.90
7936;DHT22;4013;49.744;8.118;2023-05-15T05:15:48;13.50;99.90
7936;DHT22;4013;49.744;8.118;2023-05-15T05:18:15;13.50;99.90
7936;DHT22;4013;49.744;8.118;2023-05-15T05:20:42;13.60;99.90
7936;DHT22;4013;49.744;8.118;2023-05-15T05:23:11;13.60;99.90
7936;DHT22;4013;49.744;8.118;2023-05-15T05:25:39;13.60;99.90
7936;DHT22;4013;49.744;8.118;2023-05-15T05:28:06;13.60;99.90
7936;DHT22;4013;49.744;8.118;2023-05-15T05:30:33;13.70;99.90
7936;DHT22;4013;49.744;8.118;2023-05-15T05:33:00;13.60;99.90
7936;DHT22;4013;49.744;8.118;2023-05-15T05:35:27;13.70;99.90
7936;DHT22;4013;49.744;8.118;2023-05-15T05:37:54;13.70;99.90
7936;DHT22;4013;49.744;8.118;2023-05-15T05:40:22;13.70;99.90
7936;DHT22;4013;49.744;8.118;2023-05-15T05:42:49;13.60;99.90
7936;DHT22;4013;49.744;8.118;2023-05-15T05:45:16;13.70;99.90
7936;DHT22;4013;49.744;8.118;2023-05-15T05:47:43;13.70;99.90
7936;DHT22;4013;49.744;8.118;2023-05-15T05:50:10;13.70;99.90
7936;DHT22;4013;49.744;8.118;2023-05-15T05:52:37;13.60;99.90
7936;DHT22;4013;49.744;8.118;2023-05-15T05:55:05;13.60;99.90
7936;DHT22;4013;49.744;8.118;2023-05-15T05:57:33;13.60;99.90
7936;DHT22;4013;49.744;8.118;2023-05-15T06:00:00;13.60;99.90
7936;DHT22;4013;49.744;8.118;2023-05-15T06:02:29;13.60;99.90
7936;DHT22;4013;49.744;8.118;2023-05-15T06:04:56;13.60;99.90
7936;DHT22;4013;49.744;8.118;2023-05-15T06:07:23;13.50;99.90
7936;DHT22;4013;49.744;8.118;2023-05-15T06:09:50;13.50;99.90
7936;DHT22;4013;49.744;8.118;2023-05-15T06:12:17;13.60;99.90
7936;DHT22;4013;49.744;8.118;2023-05-15T06:14:45;13.60;99.90
7936;DHT22;4013;49.744;8.118;2023-05-15T06:17:13;13.70;99.90
7936;DHT22;4013;49.744;8.118;2023-05-15T06:19:40;13.70;99.90
7936;DHT22;4013;49.744;8.118;2023-05-15T06:22:07;13.70;99.90
7936;DHT22;4013;49.744;8.118;2023-05-15T06:24:34;13.70;99.90
7936;DHT22;4013;49.744;8.118;2023-05-15T06:27:04;13.90;99.90
7936;DHT22;4013;49.744;8.118;2023-05-15T06:29:31;14.10;99.90
7936;DHT22;4013;49.744;8.118;2023-05-15T06:31:59;14.30;99.90
7936;DHT22;4013;49.744;8.118;2023-05-15T06:34:26;14.60;99.90
7936;DHT22;4013;49.744;8.118;2023-05-15T06:36:53;14.80;99.90
7936;DHT22;4013;49.744;8.118;2023-05-15T06:39:20;14.80;99.90
7936;DHT22;4013;49.744;8.118;2023-05-15T06:41:47;14.90;99.90
7936;DHT22;4013;49.744;8.118;2023-05-15T06:44:14;14.90;99.90
7936;DHT22;4013;49.744;8.118;2023-05-15T06:46:41;15.00;99.90
7936;DHT22;4013;49.744;8.118;2023-05-15T06:49:10;15.10;99.90
7936;DHT22;4013;49.744;8.118;2023-05-15T06:51:37;15.00;99.90
7936;DHT22;4013;49.744;8.118;2023-05-15T06:54:04;15.00;99.90
7936;DHT22;4013;49.744;8.118;2023-05-15T06:56:30;15.00;99.90
7936;DHT22;4013;49.744;8.118;2023-05-15T06:58:58;14.90;99.90
7936;DHT22;4013;49.744;8.118;2023-05-15T07:01:25;14.80;99.90
7936;DHT22;4013;49.744;8.118;2023-05-15T07:03:53;14.70;99.90
7936;DHT22;4013;49.744;8.118;2023-05-15T07:06:25;14.70;99.90
7936;DHT22;4013;49.744;8.118;2023-05-15T07:08:52;14.70;99.90
7936;DHT22;4013;49.744;8.118;2023-05-15T07:11:19;14.60;99.90
7936;DHT22;4013;49.744;8.118;2023-05-15T07:13:46;14.60;99.90
7936;DHT22;4013;49.744;8.118;2023-05-15T07:16:13;14.50;99.90
7936;DHT22;4013;49.744;8.118;2023-05-15T07:18:40;14.50;99.90
7936;DHT22;4013;49.744;8.118;2023-05-15T07:21:07;14.60;99.90
7936;DHT22;4013;49.744;8.118;2023-05-15T07:23:35;14.60;99.90
7936;DHT22;4013;49.744;8.118;2023-05-15T07:26:02;14.60;99.90
7936;DHT22;4013;49.744;8.118;2023-05-15T07:28:29;14.60;99.90
7936;DHT22;4013;49.744;8.118;2023-05-15T07:30:56;14.80;99.90
7936;DHT22;4013;49.744;8.118;2023-05-15T07:33:23;15.00;99.90
7936;DHT22;4013;49.744;8.118;2023-05-15T07:35:50;15.20;99.90
7936;DHT22;4013;49.744;8.118;2023-05-15T07:38:17;15.10;99.90
7936;DHT22;4013;49.744;8.118;2023-05-15T07:40:46;14.90;99.90
7936;DHT22;4013;49.744;8.118;2023-05-15T07:43:13;14.80;99.90
7936;DHT22;4013;49.744;8.118;2023-05-15T07:45:40;14.90;99.90
7936;DHT22;4013;49.744;8.118;2023-05-15T07:48:13;14.90;99.90
7936;DHT22;4013;49.744;8.118;2023-05-15T07:50:40;14.90;99.90
7936;DHT22;4013;49.744;8.118;2023-05-15T07:53:07;14.90;99.90
7936;DHT22;4013;49.744;8.118;2023-05-15T07:55:34;14.90;99.90
7936;DHT22;4013;49.744;8.118;2023-05-15T07:58:02;15.00;99.90
7936;DHT22;4013;49.744;8.118;2023-05-15T08:00:29;15.20;99.90
7936;DHT22;4013;49.744;8.118;2023-05-15T08:02:58;15.50;99.90
7936;DHT22;4013;49.744;8.118;2023-05-15T08:05:25;15.70;99.90
7936;DHT22;4013;49.744;8.118;2023-05-15T08:07:53;16.00;99.90
7936;DHT22;4013;49.744;8.118;2023-05-15T08:10:20;16.20;99.90
7936;DHT22;4013;49.744;8.118;2023-05-15T08:12:47;16.20;99.90
7936;DHT22;4013;49.744;8.118;2023-05-15T08:15:16;16.30;99.90
7936;DHT22;4013;49.744;8.118;2023-05-15T08:17:43;16.40;99.90
7936;DHT22;4013;49.744;8.118;2023-05-15T08:20:11;16.50;99.90
7936;DHT22;4013;49.744;8.118;2023-05-15T08:22:38;16.50;99.90
7936;DHT22;4013;49.744;8.118;2023-05-15T08:25:06;16.60;99.90
7936;DHT22;4013;49.744;8.118;2023-05-15T08:27:33;16.60;99.90
7936;DHT22;4013;49.744;8.118;2023-05-15T08:30:00;16.70;99.90
7936;DHT22;4013;49.744;8.118;2023-05-15T08:32:30;16.80;99.90
7936;DHT22;4013;49.744;8.118;2023-05-15T08:34:56;16.90;99.90
7936;DHT22;4013;49.744;8.118;2023-05-15T08:37:23;17.10;99.90
7936;DHT22;4013;49.744;8.118;2023-05-15T08:39:50;17.20;99.90
7936;DHT22;4013;49.744;8.118;2023-05-15T08:42:20;17.20;99.90
7936;DHT22;4013;49.744;8.118;2023-05-15T08:44:49;17.30;99.90
7936;DHT22;4013;49.744;8.118;2023-05-15T08:47:18;17.30;99.90
7936;DHT22;4013;49.744;8.118;2023-05-15T08:49:57;17.30;99.90
7936;DHT22;4013;49.744;8.118;2023-05-15T08:52:26;17.40;99.90
7936;DHT22;4013;49.744;8.118;2023-05-15T08:54:53;17.40;99.90
7936;DHT22;4013;49.744;8.118;2023-05-15T08:57:20;17.40;99.90
7936;DHT22;4013;49.744;8.118;2023-05-15T08:59:48;17.60;99.90
7936;DHT22;4013;49.744;8.118;2023-05-15T09:02:17;17.60;99.90
7936;DHT22;4013;49.744;8.118;2023-05-15T09:04:45;17.50;99.90
7936;DHT22;4013;49.744;8.118;2023-05-15T09:07:14;17.60;99.90
7936;DHT22;4013;49.744;8.118;2023-05-15T09:09:41;17.60;99.90
7936;DHT22;4013;49.744;8.118;2023-05-15T09:12:10;17.70;99.90
7936;DHT22;4013;49.744;8.118;2023-05-15T09:14:40;17.80;99.90
7936;DHT22;4013;49.744;8.118;2023-05-15T09:17:08;17.90;99.90
7936;DHT22;4013;49.744;8.118;2023-05-15T09:19:37;17.90;99.90
7936;DHT22;4013;49.744;8.118;2023-05-15T09:22:16;17.90;99.90
7936;DHT22;4013;49.744;8.118;2023-05-15T09:24:45;17.70;99.90
7936;DHT22;4013;49.744;8.118;2023-05-15T09:27:13;17.70;99.90
7936;DHT22;4013;49.744;8.118;2023-05-15T09:29:40;17.70;99.90
7936;DHT22;4013;49.744;8.118;2023-05-15T09:32:08;17.60;99.90
7936;DHT22;4013;49.744;8.118;2023-05-15T09:34:36;17.50;99.90
7936;DHT22;4013;49.744;8.118;2023-05-15T09:37:05;17.40;99.90
7936;DHT22;4013;49.744;8.118;2023-05-15T09:39:39;17.30;99.90
7936;DHT22;4013;49.744;8.118;2023-05-15T09:42:08;17.20;99.90
7936;DHT22;4013;49.744;8.118;2023-05-15T09:44:39;17.20;99.90
7936;DHT22;4013;49.744;8.118;2023-05-15T09:47:07;17.20;99.90
7936;DHT22;4013;49.744;8.118;2023-05-15T09:49:34;17.30;99.90
7936;DHT22;4013;49.744;8.118;2023-05-15T09:52:01;17.40;99.90
7936;DHT22;4013;49.744;8.118;2023-05-15T09:54:29;17.40;99.90
7936;DHT22;4013;49.744;8.118;2023-05-15T09:57:06;17.40;99.90
7936;DHT22;4013;49.744;8.118;2023-05-15T09:59:34;17.30;99.90
7936;DHT22;4013;49.744;8.118;2023-05-15T10:02:01;17.10;99.90
7936;DHT22;4013;49.744;8.118;2023-05-15T10:04:33;17.10;99.90
7936;DHT22;4013;49.744;8.118;2023-05-15T10:07:01;16.90;99.90
7936;DHT22;4013;49.744;8.118;2023-05-15T10:09:29;17.00;99.90
7936;DHT22;4013;49.744;8.118;2023-05-15T10:11:58;17.20;99.90
7936;DHT22;4013;49.744;8.118;2023-05-15T10:14:26;17.40;99.90
7936;DHT22;4013;49.744;8.118;2023-05-15T10:16:54;17.60;99.90
7936;DHT22;4013;49.744;8.118;2023-05-15T10:19:22;17.70;99.90
7936;DHT22;4013;49.744;8.118;2023-05-15T10:21:52;17.90;99.90
7936;DHT22;4013;49.744;8.118;2023-05-15T10:24:19;17.90;99.90
7936;DHT22;4013;49.744;8.118;2023-05-15T10:26:47;18.00;99.90
7936;DHT22;4013;49.744;8.118;2023-05-15T10:29:17;18.20;99.90
7936;DHT22;4013;49.744;8.118;2023-05-15T10:31:47;18.30;99.90
7936;DHT22;4013;49.744;8.118;2023-05-15T10:34:15;18.30;99.90
7936;DHT22;4013;49.744;8.118;2023-05-15T10:36:43;18.30;99.90
7936;DHT22;4013;49.744;8.118;2023-05-15T10:39:11;18.30;99.90
7936;DHT22;4013;49.744;8.118;2023-05-15T10:41:38;18.40;99.90
7936;DHT22;4013;49.744;8.118;2023-05-15T10:44:05;18.50;99.90
7936;DHT22;4013;49.744;8.118;2023-05-15T10:46:34;18.50;99.90
7936;DHT22;4013;49.744;8.118;2023-05-15T10:49:02;18.30;99.90
7936;DHT22;4013;49.744;8.118;2023-05-15T10:51:31;18.40;99.90
7936;DHT22;4013;49.744;8.118;2023-05-15T10:54:00;18.50;99.90
7936;DHT22;4013;49.744;8.118;2023-05-15T10:56:29;18.60;99.90
7936;DHT22;4013;49.744;8.118;2023-05-15T10:58:56;18.70;99.90
7936;DHT22;4013;49.744;8.118;2023-05-15T11:01:24;18.80;99.90
7936;DHT22;4013;49.744;8.118;2023-05-15T11:04:04;18.90;99.90
7936;DHT22;4013;49.744;8.118;2023-05-15T11:06:32;19.00;99.90
7936;DHT22;4013;49.744;8.118;2023-05-15T11:09:35;18.90;99.90
7936;DHT22;4013;49.744;8.118;2023-05-15T11:12:03;19.10;99.90
7936;DHT22;4013;49.744;8.118;2023-05-15T11:14:33;18.90;99.90
7936;DHT22;4013;49.744;8.118;2023-05-15T11:17:05;19.00;99.90
7936;DHT22;4013;49.744;8.118;2023-05-15T11:19:55;19.10;99.90
7936;DHT22;4013;49.744;8.118;2023-05-15T11:22:28;19.20;99.90
7936;DHT22;4013;49.744;8.118;2023-05-15T11:24:58;19.30;99.90
7936;DHT22;4013;49.744;8.118;2023-05-15T11:27:27;19.40;99.90
7936;DHT22;4013;49.744;8.118;2023-05-15T11:30:12;19.50;99.90
7936;DHT22;4013;49.744;8.118;2023-05-15T11:33:00;19.50;99.90
7936;DHT22;4013;49.744;8.118;2023-05-15T11:35:32;19.50;99.90
7936;DHT22;4013;49.744;8.118;2023-05-15T11:38:02;19.70;99.90
7936;DHT22;4013;49.744;8.118;2023-05-15T11:40:30;19.70;99.90
7936;DHT22;4013;49.744;8.118;2023-05-15T11:43:03;19.60;99.90
7936;DHT22;4013;49.744;8.118;2023-05-15T11:45:32;19.30;99.90
7936;DHT22;4013;49.744;8.118;2023-05-15T11:48:01;19.50;99.90
7936;DHT22;4013;49.744;8.118;2023-05-15T11:50:31;19.70;99.90
7936;DHT22;4013;49.744;8.118;2023-05-15T11:53:02;19.80;99.90
7936;DHT22;4013;49.744;8.118;2023-05-15T11:55:30;19.90;99.90
7936;DHT22;4013;49.744;8.118;2023-05-15T11:57:58;19.90;99.90
7936;DHT22;4013;49.744;8.118;2023-05-15T12:00:25;19.90;99.90
7936;DHT22;4013;49.744;8.118;2023-05-15T12:02:52;19.80;99.90
7936;DHT22;4013;49.744;8.118;2023-05-15T12:05:20;19.80;99.90
7936;DHT22;4013;49.744;8.118;2023-05-15T12:07:48;19.80;99.90
7936;DHT22;4013;49.744;8.118;2023-05-15T12:10:15;19.90;99.90
7936;DHT22;4013;49.744;8.118;2023-05-15T12:12:43;19.80;99.90
7936;DHT22;4013;49.744;8.118;2023-05-15T12:15:13;19.70;99.90
7936;DHT22;4013;49.744;8.118;2023-05-15T12:17:40;19.60;99.90
7936;DHT22;4013;49.744;8.118;2023-05-15T12:20:11;19.60;99.90
7936;DHT22;4013;49.744;8.118;2023-05-15T12:22:38;19.70;99.90
7936;DHT22;4013;49.744;8.118;2023-05-15T12:25:09;19.80;99.90
7936;DHT22;4013;49.744;8.118;2023-05-15T12:27:37;19.90;99.90
7936;DHT22;4013;49.744;8.118;2023-05-15T12:30:06;19.70;99.90
7936;DHT22;4013;49.744;8.118;2023-05-15T12:32:34;19.80;99.90
7936;DHT22;4013;49.744;8.118;2023-05-15T12:35:03;19.90;99.90
7936;DHT22;4013;49.744;8.118;2023-05-15T12:37:31;20.10;99.90
7936;DHT22;4013;49.744;8.118;2023-05-15T12:40:00;20.20;99.90
7936;DHT22;4013;49.744;8.118;2023-05-15T12:42:28;20.20;99.90
7936;DHT22;4013;49.744;8.118;2023-05-15T12:44:56;20.30;99.90
7936;DHT22;4013;49.744;8.118;2023-05-15T12:47:23;20.30;99.90
7936;DHT22;4013;49.744;8.118;2023-05-15T12:49:54;20.40;99.90
7936;DHT22;4013;49.744;8.118;2023-05-15T12:52:21;20.30;99.90
7936;DHT22;4013;49.744;8.118;2023-05-15T12:54:49;20.10;99.90
7936;DHT22;4013;49.744;8.118;2023-05-15T12:57:16;20.20;99.90
7936;DHT22;4013;49.744;8.118;2023-05-15T12:59:44;20.40;99.90
7936;DHT22;4013;49.744;8.118;2023-05-15T13:02:12;20.50;99.90
7936;DHT22;4013;49.744;8.118;2023-05-15T13:04:39;20.40;99.90
7936;DHT22;4013;49.744;8.118;2023-05-15T13:07:06;20.50;99.90
7936;DHT22;4013;49.744;8.118;2023-05-15T13:09:33;20.60;99.90
7936;DHT22;4013;49.744;8.118;2023-05-15T13:12:01;20.70;99.90
7936;DHT22;4013;49.744;8.118;2023-05-15T13:14:32;20.80;99.90
7936;DHT22;4013;49.744;8.118;2023-05-15T13:17:01;21.00;99.90
7936;DHT22;4013;49.744;8.118;2023-05-15T13:19:29;21.00;99.90
7936;DHT22;4013;49.744;8.118;2023-05-15T13:21:56;21.00;99.90
7936;DHT22;4013;49.744;8.118;2023-05-15T13:24:23;21.10;99.90
7936;DHT22;4013;49.744;8.118;2023-05-15T13:26:50;21.10;99.90
7936;DHT22;4013;49.744;8.118;2023-05-15T13:29:18;20.90;99.90
7936;DHT22;4013;49.744;8.118;2023-05-15T13:31:45;20.90;99.90
7936;DHT22;4013;49.744;8.118;2023-05-15T13:34:13;21.00;95.20
7936;DHT22;4013;49.744;8.118;2023-05-15T13:36:40;20.80;95.40
7936;DHT22;4013;49.744;8.118;2023-05-15T13:39:07;20.80;95.70
7936;DHT22;4013;49.744;8.118;2023-05-15T13:41:35;21.10;96.90
7936;DHT22;4013;49.744;8.118;2023-05-15T13:44:03;21.40;96.80
7936;DHT22;4013;49.744;8.118;2023-05-15T13:46:34;21.60;97.00
7936;DHT22;4013;49.744;8.118;2023-05-15T13:49:00;21.50;99.90
7936;DHT22;4013;49.744;8.118;2023-05-15T13:51:29;21.20;95.30
7936;DHT22;4013;49.744;8.118;2023-05-15T13:53:56;20.90;93.20
7936;DHT22;4013;49.744;8.118;2023-05-15T13:56:23;20.60;95.70
7936;DHT22;4013;49.744;8.118;2023-05-15T13:58:50;20.60;97.30
7936;DHT22;4013;49.744;8.118;2023-05-15T14:01:17;20.70;96.80
7936;DHT22;4013;49.744;8.118;2023-05-15T14:03:44;20.70;93.80
7936;DHT22;4013;49.744;8.118;2023-05-15T14:06:11;20.60;92.80
7936;DHT22;4013;49.744;8.118;2023-05-15T14:08:39;20.70;91.80
7936;DHT22;4013;49.744;8.118;2023-05-15T14:11:06;20.60;94.80
7936;DHT22;4013;49.744;8.118;2023-05-15T14:13:33;20.40;93.80
7936;DHT22;4013;49.744;8.118;2023-05-15T14:16:00;20.50;93.60
7936;DHT22;4013;49.744;8.118;2023-05-15T14:18:27;20.60;94.60
7936;DHT22;4013;49.744;8.118;2023-05-15T14:20:54;20.90;93.90
7936;DHT22;4013;49.744;8.118;2023-05-15T14:23:21;21.00;94.90
7936;DHT22;4013;49.744;8.118;2023-05-15T14:25:50;21.00;93.20
7936;DHT22;4013;49.744;8.118;2023-05-15T14:28:17;20.90;94.60
7936;DHT22;4013;49.744;8.118;2023-05-15T14:30:44;21.00;93.10
7936;DHT22;4013;49.744;8.118;2023-05-15T14:33:11;21.00;92.10
7936;DHT22;4013;49.744;8.118;2023-05-15T14:35:37;21.00;90.60
7936;DHT22;4013;49.744;8.118;2023-05-15T14:38:05;21.00;90.90
7936;DHT22;4013;49.744;8.118;2023-05-15T14:40:32;21.00;91.60
7936;DHT22;4013;49.744;8.118;2023-05-15T14:43:00;21.10;92.40
7936;DHT22;4013;49.744;8.118;2023-05-15T14:45:27;21.10;91.60
7936;DHT22;4013;49.744;8.118;2023-05-15T14:47:54;21.00;93.90
7936;DHT22;4013;49.744;8.118;2023-05-15T14:50:21;21.10;92.30
7936;DHT22;4013;49.744;8.118;2023-05-15T14:52:48;21.20;92.60
7936;DHT22;4013;49.744;8.118;2023-05-15T14:55:15;21.20;92.30
7936;DHT22;4013;49.744;8.118;2023-05-15T14:57:46;20.90;93.30
7936;DHT22;4013;49.744;8.118;2023-05-15T15:00:17;20.80;94.30
7936;DHT22;4013;49.744;8.118;2023-05-15T15:02:44;20.60;96.30
7936;DHT22;4013;49.744;8.118;2023-05-15T15:05:11;20.20;99.90
7936;DHT22;4013;49.744;8.118;2023-05-15T15:08:01;20.10;99.90
7936;DHT22;4013;49.744;8.118;2023-05-15T15:10:29;20.10;99.90
7936;DHT22;4013;49.744;8.118;2023-05-15T15:12:57;20.00;99.90
7936;DHT22;4013;49.744;8.118;2023-05-15T15:15:26;19.70;99.90
7936;DHT22;4013;49.744;8.118;2023-05-15T15:17:54;19.50;99.90
7936;DHT22;4013;49.744;8.118;2023-05-15T15:20:22;19.50;99.90
7936;DHT22;4013;49.744;8.118;2023-05-15T15:22:49;19.30;99.90
7936;DHT22;4013;49.744;8.118;2023-05-15T15:25:17;19.40;99.90
7936;DHT22;4013;49.744;8.118;2023-05-15T15:27:45;19.50;99.90
7936;DHT22;4013;49.744;8.118;2023-05-15T15:30:12;19.80;99.90
7936;DHT22;4013;49.744;8.118;2023-05-15T15:32:42;19.90;99.90
7936;DHT22;4013;49.744;8.118;2023-05-15T15:35:10;20.10;99.90
7936;DHT22;4013;49.744;8.118;2023-05-15T15:37:37;20.20;99.90
7936;DHT22;4013;49.744;8.118;2023-05-15T15:40:05;20.30;99.90
7936;DHT22;4013;49.744;8.118;2023-05-15T15:42:33;20.20;99.90
7936;DHT22;4013;49.744;8.118;2023-05-15T15:45:00;20.30;99.90
7936;DHT22;4013;49.744;8.118;2023-05-15T15:47:27;20.40;99.90
7936;DHT22;4013;49.744;8.118;2023-05-15T15:49:58;20.20;99.90
7936;DHT22;4013;49.744;8.118;2023-05-15T15:52:25;20.20;99.90
7936;DHT22;4013;49.744;8.118;2023-05-15T15:54:52;20.10;99.90
7936;DHT22;4013;49.744;8.118;2023-05-15T15:57:20;20.10;99.90
7936;DHT22;4013;49.744;8.118;2023-05-15T15:59:47;20.00;99.90
7936;DHT22;4013;49.744;8.118;2023-05-15T16:02:14;20.00;99.90
7936;DHT22;4013;49.744;8.118;2023-05-15T16:04:41;19.80;99.90
7936;DHT22;4013;49.744;8.118;2023-05-15T16:07:10;19.70;99.90
7936;DHT22;4013;49.744;8.118;2023-05-15T16:09:37;19.40;99.90